createdAt,value
2018-10-03T00:02:41.399Z,99460.15
2018-10-03T00:08:46.923Z,99460.25
2018-10-03T00:14:51.902Z,99469.20
2018-10-03T00:20:56.683Z,99474.86
2018-10-03T00:27:01.337Z,99489.70
2018-10-03T00:33:07.628Z,99487.99
2018-10-03T00:39:13.352Z,99479.92
2018-10-03T00:45:18.217Z,99486.78
2018-10-03T00:51:22.903Z,99498.85
2018-10-03T00:57:27.509Z,99480.14
2018-10-03T01:03:32.181Z,99483.91
2018-10-03T01:09:36.827Z,99496.88
2018-10-03T01:15:41.490Z,99496.46
2018-10-03T01:21:46.396Z,99504.41
2018-10-03T01:27:51.074Z,99506.58
2018-10-03T01:33:55.731Z,99499.90
2018-10-03T01:40:00.649Z,99513.07
2018-10-03T01:46:05.760Z,99500.17
2018-10-03T01:52:10.668Z,99511.13
2018-10-03T01:58:16.430Z,99511.83
2018-10-03T02:04:21.193Z,99516.05
2018-10-03T02:10:25.884Z,99512.93
2018-10-03T02:16:31.182Z,99520.02
2018-10-03T02:22:36.528Z,99527.20
2018-10-03T02:28:41.481Z,99524.39
2018-10-03T02:34:46.237Z,99517.27
2018-10-03T02:40:51.008Z,99514.77
2018-10-03T02:46:55.785Z,99521.36
2018-10-03T02:53:00.567Z,99533.88
2018-10-03T02:59:05.206Z,99528.23
2018-10-03T03:05:09.847Z,99537.97
2018-10-03T03:11:15.027Z,99538.04
2018-10-03T03:17:20.034Z,99533.91
2018-10-03T03:23:25.046Z,99536.28
2018-10-03T03:29:30.010Z,99539.72
2018-10-03T03:35:34.833Z,99529.95
2018-10-03T03:41:39.723Z,99541.52
2018-10-03T03:47:44.393Z,99531.34
2018-10-03T03:53:49.045Z,99526.31
2018-10-03T03:59:53.703Z,99541.99
2018-10-03T04:05:58.838Z,99547.50
2018-10-03T04:12:03.498Z,99551.14
2018-10-03T04:18:08.226Z,99545.60
2018-10-03T04:24:13.123Z,99554.68
2018-10-03T04:30:17.784Z,99559.19
2018-10-03T04:36:22.392Z,99556.81
2018-10-03T04:42:27.292Z,99577.97
2018-10-03T04:48:32.025Z,99591.38
2018-10-03T04:54:36.636Z,99592.00
2018-10-03T05:00:41.286Z,99606.00
2018-10-03T05:06:45.949Z,99611.05
2018-10-03T05:12:50.573Z,99620.03
2018-10-03T05:18:55.190Z,99617.05
2018-10-03T05:24:59.905Z,99615.92
2018-10-03T05:31:04.543Z,99635.66
2018-10-03T05:37:09.208Z,99640.11
2018-10-03T05:43:14.419Z,99647.81
2018-10-03T05:49:19.078Z,99664.19
2018-10-03T05:55:23.725Z,99666.16
2018-10-03T06:01:28.352Z,99681.85
2018-10-03T06:07:33.273Z,99693.48
2018-10-03T06:13:37.927Z,99694.25
2018-10-03T06:19:42.584Z,99696.17
2018-10-03T06:25:47.273Z,99706.30
2018-10-03T06:31:51.979Z,99731.25
2018-10-03T06:37:56.609Z,99726.95
2018-10-03T06:44:01.474Z,99740.66
2018-10-03T06:50:06.496Z,99738.48
2018-10-03T06:56:11.371Z,99763.36
2018-10-03T07:02:15.993Z,99774.53
2018-10-03T07:08:20.659Z,99781.84
2018-10-03T07:14:25.587Z,99788.34
2018-10-03T07:20:30.334Z,99804.52
2018-10-03T07:26:35.029Z,99814.98
2018-10-03T07:32:39.677Z,99811.91
2018-10-03T07:38:44.265Z,99816.61
2018-10-03T07:44:49.162Z,99826.22
2018-10-03T07:50:53.926Z,99830.09
2018-10-03T07:56:58.544Z,99809.75
2018-10-03T08:03:03.230Z,99838.48
2018-10-03T08:09:09.973Z,99843.08
2018-10-03T08:15:14.620Z,99849.00
2018-10-03T08:21:19.845Z,99860.52
2018-10-03T08:27:24.516Z,99880.83
2018-10-03T08:33:29.719Z,99874.56
2018-10-03T08:39:34.373Z,99876.73
2018-10-03T08:45:39.128Z,99875.98
2018-10-03T08:51:44.027Z,99887.47
2018-10-03T08:57:48.593Z,99901.33
2018-10-03T09:03:53.285Z,99901.80
2018-10-03T09:09:58.173Z,99920.27
2018-10-03T09:16:02.875Z,99921.78
2018-10-03T09:22:07.518Z,99925.52
2018-10-03T09:28:12.566Z,99943.30
2018-10-03T09:34:17.751Z,99951.21
2018-10-03T09:40:22.467Z,99966.98
2018-10-03T09:46:27.706Z,99966.36
2018-10-03T09:52:32.361Z,99966.42
2018-10-03T09:58:37.087Z,99972.97
2018-10-03T10:04:41.816Z,99994.58
2018-10-03T10:10:46.661Z,100001.19
2018-10-03T10:16:51.268Z,100010.70
2018-10-03T10:22:56.478Z,100005.60
2018-10-03T10:29:01.323Z,99999.36
2018-10-03T10:35:06.315Z,100021.24
2018-10-03T10:41:11.014Z,100022.67
2018-10-03T10:47:15.880Z,100034.63
2018-10-03T10:53:20.610Z,100032.02
2018-10-03T10:59:25.606Z,100038.81
2018-10-03T11:05:30.202Z,100053.72
2018-10-03T11:11:34.933Z,100065.95
2018-10-03T11:17:39.706Z,100059.19
2018-10-03T11:23:44.470Z,100066.34
2018-10-03T11:29:49.098Z,100074.55
2018-10-03T11:35:53.729Z,100080.28
2018-10-03T11:41:58.386Z,100072.70
2018-10-03T11:48:03.355Z,100077.37
2018-10-03T11:54:08.001Z,100084.67
2018-10-03T12:00:12.685Z,100073.39
2018-10-03T12:06:17.349Z,100077.56
2018-10-03T12:12:22.306Z,100090.28
2018-10-03T12:18:26.950Z,100079.12
2018-10-03T12:24:31.875Z,100071.99
2018-10-03T12:30:36.523Z,100081.00
2018-10-03T12:36:41.592Z,100078.86
2018-10-03T12:42:46.262Z,100078.26
2018-10-03T12:48:51.228Z,100081.44
2018-10-03T12:54:55.852Z,100083.55
2018-10-03T13:01:00.557Z,100095.91
2018-10-03T13:07:05.177Z,100104.38
2018-10-03T13:13:10.370Z,100104.26
2018-10-03T13:19:16.522Z,100113.27
2018-10-03T13:25:21.401Z,100098.05
2018-10-03T13:31:26.437Z,100104.95
2018-10-03T13:37:31.098Z,100107.73
2018-10-03T13:43:35.706Z,100101.30
2018-10-03T13:49:40.362Z,100097.16
2018-10-03T13:55:44.977Z,100112.42
2018-10-03T14:01:49.894Z,100108.92
2018-10-03T14:07:54.507Z,100112.09
2018-10-03T14:13:59.117Z,100110.00
2018-10-03T14:20:03.843Z,100112.13
2018-10-03T14:26:08.466Z,100127.63
2018-10-03T14:32:13.443Z,100126.25
2018-10-03T14:38:18.132Z,100132.56
2018-10-03T14:44:22.824Z,100144.63
2018-10-03T14:50:27.821Z,100150.28
2018-10-03T14:56:32.488Z,100155.89
2018-10-03T15:02:37.196Z,100160.62
2018-10-03T15:08:42.267Z,100160.02
2018-10-03T15:14:46.915Z,100169.25
2018-10-03T15:20:51.581Z,100181.42
2018-10-03T15:26:56.573Z,100178.84
2018-10-03T15:33:01.419Z,100183.17
2018-10-03T15:39:07.586Z,100188.25
2018-10-03T15:45:12.258Z,100202.19
2018-10-03T15:51:17.295Z,100195.83
2018-10-03T15:57:21.922Z,100209.08
2018-10-03T16:03:26.604Z,100213.13
2018-10-03T16:09:32.019Z,100209.30
2018-10-03T16:15:36.672Z,100218.84
2018-10-03T16:21:41.755Z,100217.72
2018-10-03T16:27:46.421Z,100222.54
2018-10-03T16:33:51.045Z,100232.76
2018-10-03T16:39:55.749Z,100237.98
2018-10-03T16:46:00.358Z,100254.71
2018-10-03T16:52:05.011Z,100257.78
2018-10-03T16:58:09.886Z,100259.37
2018-10-03T17:04:14.606Z,100266.88
2018-10-03T17:10:19.632Z,100272.77
2018-10-03T17:16:24.644Z,100273.55
2018-10-03T17:22:29.294Z,100278.42
2018-10-03T17:28:33.918Z,100283.63
2018-10-03T17:34:38.659Z,100285.42
2018-10-03T17:40:43.295Z,100291.03
2018-10-03T17:46:48.851Z,100295.86
2018-10-03T17:52:53.472Z,100302.18
2018-10-03T17:58:58.238Z,100311.81
2018-10-03T18:05:03.094Z,100314.55
2018-10-03T18:11:07.293Z,100314.64
2018-10-03T18:17:18.772Z,100319.09
2018-10-03T18:23:23.435Z,100322.95
2018-10-03T18:29:28.091Z,100332.36
2018-10-03T18:35:32.829Z,100335.87
2018-10-03T18:41:37.663Z,100341.05
2018-10-03T18:47:42.367Z,100341.48
2018-10-03T18:53:47.005Z,100353.78
2018-10-03T18:59:51.674Z,100356.70
2018-10-03T19:05:56.471Z,100358.95
2018-10-03T19:12:01.472Z,100359.20
2018-10-03T19:18:06.322Z,100365.25
2018-10-03T19:24:11.070Z,100368.20
2018-10-03T19:30:15.707Z,100365.30
2018-10-03T19:36:20.783Z,100372.11
2018-10-03T19:42:25.375Z,100374.77
2018-10-03T19:48:30.086Z,100380.00
2018-10-03T19:54:34.791Z,100384.88
2018-10-03T20:00:39.434Z,100377.59
2018-10-03T20:06:44.119Z,100390.06
2018-10-03T20:12:48.812Z,100393.67
2018-10-03T20:18:53.493Z,100399.45
2018-10-03T20:24:58.121Z,100400.65
2018-10-03T20:31:03.136Z,100403.35
2018-10-03T20:37:08.034Z,100411.72
2018-10-03T20:43:12.698Z,100414.43
2018-10-03T20:49:17.329Z,100409.91
2018-10-03T20:55:21.961Z,100406.20
2018-10-03T21:01:27.032Z,100413.07
2018-10-03T21:07:31.736Z,100406.21
2018-10-03T21:13:36.397Z,100416.72
2018-10-03T21:19:41.035Z,100415.20
2018-10-03T21:25:46.001Z,100410.50
2018-10-03T21:31:50.687Z,100414.37
2018-10-03T21:37:55.365Z,100415.66
2018-10-03T21:44:00.005Z,100419.81
2018-10-03T21:50:05.350Z,100425.08
2018-10-03T21:56:09.978Z,100432.52
2018-10-03T22:02:15.110Z,100440.98
2018-10-03T22:08:19.801Z,100429.73
2018-10-03T22:14:24.508Z,100430.14
2018-10-03T22:20:29.129Z,100438.87
2018-10-03T22:26:34.127Z,100452.51
2018-10-03T22:32:38.814Z,100446.32
2018-10-03T22:38:43.455Z,100451.19
2018-10-03T22:44:48.427Z,100445.70
2018-10-03T22:50:53.061Z,100440.34
2018-10-03T22:56:57.676Z,100438.65
2018-10-03T23:03:02.302Z,100446.72
2018-10-03T23:09:08.109Z,100444.88
2018-10-03T23:15:12.767Z,100449.59
2018-10-03T23:21:17.387Z,100450.75
2018-10-03T23:27:22.013Z,100445.84
2018-10-03T23:33:26.875Z,100454.42
2018-10-03T23:39:31.487Z,100450.53
2018-10-03T23:45:36.090Z,100458.02
2018-10-03T23:51:40.748Z,100462.58
2018-10-03T23:57:45.698Z,100466.26
